Time;durP1;ratioP1;P1;durP2;ratioP2;P2;SDS_P1;SDS_P2;PMS_P1;PMS_P2;Temp;Humidity;BMP_temperature;BMP_pressure;BME280_temperature;BME280_humidity;BME280_pressure;Samples;Min_cycle;Max_cycle;Signal;HPM_P1;HPM_P2
2023/06/20 00:00:07;;;;;;;28.00;25.13;;;23.20;99.90;;;;;;5033947;28;20212;-73
2023/06/20 00:02:33;;;;;;;23.83;21.50;;;23.20;99.90;;;;;;5032998;28;20235;-71
2023/06/20 00:05:00;;;;;;;21.92;19.63;;;23.10;99.90;;;;;;5027050;28;20220;-71
2023/06/20 00:07:26;;;;;;;22.83;20.30;;;23.10;99.90;;;;;;5032392;28;20207;-70
2023/06/20 00:09:51;;;;;;;22.92;20.38;;;23.00;99.90;;;;;;5033140;28;20258;-72
2023/06/20 00:12:17;;;;;;;22.38;19.98;;;23.00;99.90;;;;;;5036708;28;20215;-71
2023/06/20 00:14:43;;;;;;;22.20;20.02;;;22.90;99.90;;;;;;5037128;28;20218;-72
2023/06/20 00:17:09;;;;;;;21.35;19.10;;;23.00;99.90;;;;;;5035822;28;20196;-72
2023/06/20 00:19:34;;;;;;;22.58;20.27;;;22.90;99.90;;;;;;5035077;28;20262;-72
2023/06/20 00:22:03;;;;;;;25.83;20.83;;;22.90;99.90;;;;;;5044037;28;20223;-72
2023/06/20 00:24:32;;;;;;;22.00;19.13;;;22.90;99.90;;;;;;5041133;28;20219;-71
2023/06/20 00:27:02;;;;;;;22.88;20.50;;;22.90;99.90;;;;;;5040991;28;20212;-72
2023/06/20 00:29:28;;;;;;;22.80;20.52;;;22.80;99.90;;;;;;5040786;28;20184;-71
2023/06/20 00:31:53;;;;;;;21.88;19.67;;;22.70;99.90;;;;;;5044413;28;20249;-72
2023/06/20 00:34:19;;;;;;;22.63;20.23;;;22.70;99.90;;;;;;5042107;28;20215;-71
2023/06/20 00:36:45;;;;;;;22.30;19.88;;;22.70;99.90;;;;;;5041405;28;20923;-72
2023/06/20 00:39:10;;;;;;;21.88;19.77;;;22.70;99.90;;;;;;5036207;28;20219;-72
2023/06/20 00:41:36;;;;;;;21.70;19.38;;;22.60;99.90;;;;;;5032930;28;20299;-72
2023/06/20 00:44:03;;;;;;;22.02;19.73;;;22.60;99.90;;;;;;5029007;28;20227;-72
2023/06/20 00:46:37;;;;;;;22.20;20.10;;;22.60;99.90;;;;;;5033436;28;20253;-72
2023/06/20 00:49:05;;;;;;;22.90;20.45;;;22.60;99.90;;;;;;5035006;28;20209;-72
2023/06/20 00:51:32;;;;;;;22.92;20.13;;;22.60;99.90;;;;;;5038471;28;20273;-71
2023/06/20 00:53:58;;;;;;;21.48;19.38;;;22.50;99.90;;;;;;5040446;28;20216;-71
2023/06/20 00:56:25;;;;;;;21.05;18.88;;;22.50;99.90;;;;;;5037015;28;20542;-72
2023/06/20 00:58:51;;;;;;;22.40;20.15;;;22.40;99.90;;;;;;5040104;28;20215;-72
2023/06/20 01:01:17;;;;;;;22.17;19.95;;;22.40;99.90;;;;;;5042911;28;20231;-72
2023/06/20 01:03:44;;;;;;;22.25;20.02;;;22.40;99.90;;;;;;5034413;28;20290;-72
2023/06/20 01:06:44;;;;;;;22.02;19.67;;;22.40;99.90;;;;;;5054146;28;20205;-72
2023/06/20 01:09:23;;;;;;;21.38;19.20;;;22.40;99.90;;;;;;5041331;28;20200;-72
2023/06/20 01:12:03;;;;;;;21.75;19.50;;;22.30;99.90;;;;;;5040797;28;20197;-70
2023/06/20 01:14:40;;;;;;;21.88;19.77;;;22.30;99.90;;;;;;5040636;28;20184;-71
2023/06/20 01:17:13;;;;;;;22.75;20.45;;;22.30;99.90;;;;;;5044652;28;20211;-72
2023/06/20 01:20:04;;;;;;;22.35;19.73;;;22.30;99.90;;;;;;5040208;28;20262;-72
2023/06/20 01:22:41;;;;;;;22.80;20.10;;;22.30;99.90;;;;;;5028259;28;20246;-72
2023/06/20 01:25:19;;;;;;;20.73;18.55;;;22.40;99.90;;;;;;5032589;28;20243;-72
2023/06/20 01:28:12;;;;;;;19.70;17.80;;;22.40;99.90;;;;;;5034601;28;20212;-72
2023/06/20 01:31:03;;;;;;;21.88;19.65;;;22.40;99.90;;;;;;5025762;28;20220;-72
2023/06/20 01:33:42;;;;;;;21.95;19.65;;;22.30;99.90;;;;;;5030696;28;20744;-71
2023/06/20 01:36:09;;;;;;;22.45;20.08;;;22.20;99.90;;;;;;5038273;28;20314;-72
2023/06/20 01:38:38;;;;;;;22.55;20.25;;;22.20;99.90;;;;;;5053044;28;20211;-72
2023/06/20 01:41:05;;;;;;;22.23;20.02;;;22.20;99.90;;;;;;5037369;28;20218;-72
2023/06/20 01:43:32;;;;;;;22.13;19.83;;;22.20;99.90;;;;;;5036865;28;20587;-72
2023/06/20 01:46:02;;;;;;;22.95;20.65;;;22.20;99.90;;;;;;5042741;28;20689;-72
2023/06/20 01:48:29;;;;;;;22.58;20.23;;;22.10;99.90;;;;;;5038693;28;20357;-72
2023/06/20 01:50:55;;;;;;;22.98;20.70;;;22.10;99.90;;;;;;5043487;28;20704;-72
2023/06/20 01:53:23;;;;;;;23.30;20.85;;;22.10;99.90;;;;;;5039658;28;20638;-72
2023/06/20 01:55:52;;;;;;;22.85;20.42;;;22.10;99.90;;;;;;5040800;28;20216;-70
2023/06/20 01:58:18;;;;;;;22.58;20.17;;;22.00;99.90;;;;;;5040347;28;20780;-72
2023/06/20 02:00:45;;;;;;;22.80;20.52;;;22.00;99.90;;;;;;5038880;28;20252;-72
2023/06/20 02:03:11;;;;;;;23.73;21.25;;;22.00;99.90;;;;;;5032373;28;20216;-72
2023/06/20 02:05:40;;;;;;;22.73;20.40;;;22.00;99.90;;;;;;5036025;28;20539;-72
2023/06/20 02:08:07;;;;;;;23.45;20.40;;;22.00;99.90;;;;;;5035281;28;20264;-73
2023/06/20 02:10:34;;;;;;;23.92;21.50;;;22.00;99.90;;;;;;5036777;28;20360;-72
2023/06/20 02:13:00;;;;;;;22.92;20.48;;;22.00;99.90;;;;;;5038736;28;20215;-72
2023/06/20 02:15:26;;;;;;;22.30;19.92;;;22.00;99.90;;;;;;5041480;28;20215;-72
2023/06/20 02:17:53;;;;;;;23.80;21.20;;;22.00;99.90;;;;;;5031799;28;20181;-71
2023/06/20 02:20:19;;;;;;;26.52;22.85;;;22.00;99.90;;;;;;5038790;28;20180;-72
2023/06/20 02:22:46;;;;;;;28.00;25.02;;;22.00;99.90;;;;;;5037242;28;20215;-71
2023/06/20 02:25:21;;;;;;;23.40;21.08;;;22.10;99.90;;;;;;5042227;28;20593;-72
2023/06/20 02:27:49;;;;;;;24.77;22.27;;;22.10;99.90;;;;;;5040573;28;20215;-71
2023/06/20 02:30:16;;;;;;;24.20;21.75;;;22.10;99.90;;;;;;5040524;28;20226;-72
2023/06/20 02:32:44;;;;;;;22.80;20.40;;;22.10;99.90;;;;;;5037268;28;20296;-72
2023/06/20 02:35:13;;;;;;;23.55;21.10;;;22.10;99.90;;;;;;5030827;28;20842;-72
2023/06/20 02:37:40;;;;;;;22.25;20.15;;;22.10;99.90;;;;;;5037327;28;20213;-72
2023/06/20 02:40:07;;;;;;;22.05;19.85;;;22.10;99.90;;;;;;5040797;28;20203;-72
2023/06/20 02:42:33;;;;;;;22.83;20.55;;;22.10;99.90;;;;;;5036698;28;20612;-69
2023/06/20 02:44:59;;;;;;;24.33;21.73;;;22.10;99.90;;;;;;5028643;28;20239;-72
2023/06/20 02:47:53;;;;;;;23.20;21.00;;;22.10;99.90;;;;;;5038496;28;20199;-72
2023/06/20 02:50:52;;;;;;;22.85;20.55;;;22.10;99.90;;;;;;5034176;28;20214;-72
2023/06/20 02:53:33;;;;;;;22.45;19.88;;;22.20;99.90;;;;;;5015211;28;20215;-72
2023/06/20 02:56:07;;;;;;;21.98;19.77;;;22.20;99.90;;;;;;5027758;28;20209;-72
2023/06/20 02:58:35;;;;;;;21.83;19.70;;;22.20;99.90;;;;;;5033094;28;20223;-72
2023/06/20 03:01:02;;;;;;;24.23;21.67;;;22.30;99.90;;;;;;5036739;28;20782;-72
2023/06/20 03:03:30;;;;;;;23.08;20.77;;;22.40;99.90;;;;;;5034807;28;20207;-70
2023/06/20 03:05:57;;;;;;;21.75;19.55;;;22.40;99.90;;;;;;5035955;28;20671;-72
2023/06/20 03:08:26;;;;;;;24.23;21.77;;;22.30;99.90;;;;;;5036102;28;20741;-72
2023/06/20 03:17:35;;;;;;;23.35;20.95;;;22.30;99.90;;;;;;5035003;28;20267;-72
2023/06/20 03:20:03;;;;;;;23.08;20.63;;;22.30;99.90;;;;;;5038540;28;20176;-72
2023/06/20 03:22:30;;;;;;;22.52;20.33;;;22.40;99.90;;;;;;5040213;28;20254;-72
2023/06/20 03:24:55;;;;;;;24.80;22.17;;;22.40;99.90;;;;;;5021080;28;20228;-72
2023/06/20 03:27:21;;;;;;;22.77;20.48;;;22.40;99.90;;;;;;5031588;28;20238;-72
2023/06/20 03:29:46;;;;;;;24.77;21.70;;;22.70;99.90;;;;;;5028112;28;20188;-71
2023/06/20 03:32:12;;;;;;;23.77;21.33;;;22.90;99.90;;;;;;5027155;28;20214;-72
2023/06/20 03:34:38;;;;;;;23.60;21.42;;;22.90;99.90;;;;;;5029894;28;20219;-72
2023/06/20 03:37:04;;;;;;;23.58;21.17;;;23.10;99.90;;;;;;5034888;28;20591;-72
2023/06/20 03:39:29;;;;;;;23.48;21.00;;;23.00;99.90;;;;;;5033981;28;20218;-72
2023/06/20 03:41:55;;;;;;;23.92;21.60;;;23.10;99.90;;;;;;5032963;28;20232;-71
2023/06/20 03:44:20;;;;;;;23.60;20.88;;;23.30;99.90;;;;;;5035498;28;20187;-72
2023/06/20 03:46:46;;;;;;;32.25;22.45;;;23.40;99.90;;;;;;5033266;28;20216;-72
2023/06/20 03:49:12;;;;;;;24.15;21.70;;;23.30;99.90;;;;;;5031297;28;20200;-72
2023/06/20 03:51:38;;;;;;;23.20;20.80;;;23.30;99.90;;;;;;5035695;28;20212;-72
2023/06/20 03:54:04;;;;;;;23.83;21.35;;;23.30;99.90;;;;;;5039190;28;20276;-72
2023/06/20 03:56:30;;;;;;;22.58;20.25;;;23.40;99.90;;;;;;5035439;28;20184;-72
2023/06/20 03:58:55;;;;;;;22.23;20.02;;;23.40;99.90;;;;;;5043940;28;20743;-72
2023/06/20 04:01:24;;;;;;;22.70;20.30;;;23.40;99.90;;;;;;5041676;28;20224;-72
2023/06/20 04:03:50;;;;;;;22.15;19.85;;;23.30;99.90;;;;;;5037113;28;20585;-72
2023/06/20 04:06:16;;;;;;;22.90;20.52;;;23.30;99.90;;;;;;5034491;28;20230;-72
2023/06/20 04:08:42;;;;;;;23.30;20.90;;;23.20;99.90;;;;;;5037178;28;20176;-72
2023/06/20 04:11:08;;;;;;;24.20;21.33;;;23.20;99.90;;;;;;5035653;28;20229;-72
2023/06/20 04:13:33;;;;;;;24.70;20.73;;;23.20;99.90;;;;;;5035441;28;20227;-71
2023/06/20 04:15:59;;;;;;;22.65;20.40;;;23.20;99.90;;;;;;5037447;28;20571;-71
2023/06/20 04:18:25;;;;;;;22.27;20.10;;;23.20;99.90;;;;;;5037160;28;20212;-72
2023/06/20 04:20:50;;;;;;;22.58;20.38;;;23.20;99.90;;;;;;5034441;28;20209;-70
2023/06/20 04:23:16;;;;;;;24.52;19.50;;;23.50;99.90;;;;;;5038735;28;20178;-72
2023/06/20 04:25:41;;;;;;;23.25;20.95;;;23.80;99.90;;;;;;5033138;28;20215;-72
2023/06/20 04:28:07;;;;;;;23.45;21.08;;;24.60;99.90;;;;;;5041308;28;20369;-72
2023/06/20 04:30:33;;;;;;;22.38;19.27;;;25.90;99.90;;;;;;5037221;28;20215;-72
2023/06/20 04:32:58;;;;;;;20.98;18.75;;;27.20;99.90;;;;;;5040838;28;21192;-72
2023/06/20 04:35:24;;;;;;;23.63;19.73;;;27.90;99.90;;;;;;5040620;28;20185;-71
2023/06/20 04:37:52;;;;;;;22.70;20.48;;;28.20;99.90;;;;;;5036271;28;20221;-71
2023/06/20 04:40:18;;;;;;;24.38;21.23;;;28.20;99.90;;;;;;5039887;28;20228;-72
2023/06/20 04:42:47;;;;;;;24.67;22.10;;;27.60;99.90;;;;;;5039006;28;20244;-71
2023/06/20 04:45:13;;;;;;;24.63;22.08;;;27.50;99.90;;;;;;5036519;28;20315;-71
2023/06/20 04:47:41;;;;;;;24.17;21.63;;;26.90;99.90;;;;;;5048065;28;20276;-71
2023/06/20 04:50:09;;;;;;;23.65;20.67;;;26.40;99.90;;;;;;5030015;28;20173;-71
2023/06/20 04:52:35;;;;;;;24.25;21.73;;;25.80;99.90;;;;;;5033732;28;20218;-68
2023/06/20 04:55:03;;;;;;;23.73;21.27;;;25.50;99.90;;;;;;5028976;28;20292;-71
2023/06/20 04:57:30;;;;;;;25.05;22.52;;;25.20;99.90;;;;;;5036403;28;20216;-70
2023/06/20 04:59:56;;;;;;;24.17;21.00;;;25.00;99.90;;;;;;5034570;28;20216;-71
2023/06/20 05:02:22;;;;;;;23.48;20.98;;;24.70;99.90;;;;;;5038771;28;20212;-70
2023/06/20 05:04:48;;;;;;;23.88;21.23;;;24.50;99.90;;;;;;5034169;28;20216;-68
2023/06/20 05:07:13;;;;;;;27.63;24.67;;;24.40;99.90;;;;;;5037644;28;20299;-73
2023/06/20 05:09:39;;;;;;;24.90;21.38;;;24.30;99.90;;;;;;5028974;28;20208;-71
2023/06/20 05:12:05;;;;;;;24.50;21.23;;;24.10;99.90;;;;;;5037561;28;20302;-71
2023/06/20 05:14:31;;;;;;;26.15;22.67;;;24.00;99.90;;;;;;5037383;28;20228;-71
2023/06/20 05:16:56;;;;;;;24.52;22.02;;;23.80;99.90;;;;;;5037112;28;20698;-73
2023/06/20 05:19:22;;;;;;;24.42;22.00;;;23.80;99.90;;;;;;5038004;28;20211;-71
2023/06/20 05:21:47;;;;;;;27.45;22.80;;;23.80;99.90;;;;;;5040826;28;20729;-69
2023/06/20 05:24:14;;;;;;;26.23;22.60;;;23.80;99.90;;;;;;5038362;28;20208;-71
2023/06/20 05:26:39;;;;;;;30.02;22.13;;;23.80;99.90;;;;;;5032074;28;20176;-71
2023/06/20 05:29:05;;;;;;;25.70;20.85;;;23.70;99.90;;;;;;5030722;28;20618;-71
2023/06/20 05:31:31;;;;;;;25.13;22.48;;;23.70;99.90;;;;;;5034825;28;20219;-71
2023/06/20 05:33:57;;;;;;;23.88;21.52;;;23.70;99.90;;;;;;5036770;28;20291;-71
2023/06/20 05:36:23;;;;;;;22.90;20.52;;;23.60;99.90;;;;;;5043303;28;20226;-72
2023/06/20 05:38:48;;;;;;;22.85;20.55;;;23.70;99.90;;;;;;5037690;28;20689;-70
2023/06/20 05:41:17;;;;;;;26.63;22.35;;;23.80;99.90;;;;;;5035782;28;20296;-71
2023/06/20 05:43:42;;;;;;;25.05;22.50;;;23.90;99.90;;;;;;5039221;28;20631;-72
2023/06/20 05:46:09;;;;;;;28.08;23.45;;;23.90;99.90;;;;;;5043238;28;20214;-72
2023/06/20 05:48:35;;;;;;;24.33;21.80;;;24.00;99.90;;;;;;5039838;28;20590;-71
2023/06/20 05:51:02;;;;;;;23.55;21.30;;;24.10;99.90;;;;;;5041396;28;20214;-71
2023/06/20 05:53:28;;;;;;;24.00;21.50;;;24.30;99.90;;;;;;5042491;28;20175;-72
2023/06/20 05:55:54;;;;;;;25.08;22.63;;;24.40;99.90;;;;;;5040732;28;20714;-71
2023/06/20 05:58:20;;;;;;;26.27;22.42;;;24.70;99.90;;;;;;5041112;28;20208;-72
2023/06/20 06:00:45;;;;;;;23.88;21.35;;;25.20;99.90;;;;;;5040866;28;20220;-72
2023/06/20 06:03:12;;;;;;;23.80;21.33;;;25.90;99.90;;;;;;5041049;28;20242;-71
2023/06/20 06:05:39;;;;;;;25.65;21.98;;;26.30;99.90;;;;;;5040773;28;20267;-71
2023/06/20 06:08:05;;;;;;;22.75;20.33;;;27.20;99.90;;;;;;5039227;28;20263;-72
2023/06/20 06:10:31;;;;;;;21.20;19.13;;;28.30;99.90;;;;;;5049407;28;20204;-71
2023/06/20 06:12:57;;;;;;;24.48;22.10;;;28.90;99.90;;;;;;5039484;28;20196;-72
2023/06/20 06:15:23;;;;;;;22.45;20.15;;;30.10;99.90;;;;;;5039540;28;20540;-72
2023/06/20 06:17:49;;;;;;;21.98;19.67;;;30.80;99.90;;;;;;5039684;28;20185;-70
2023/06/20 06:20:19;;;;;;;22.25;20.15;;;31.80;99.90;;;;;;5044716;28;20176;-72
2023/06/20 06:22:45;;;;;;;22.95;20.55;;;32.00;99.90;;;;;;5039729;28;20628;-72
2023/06/20 06:25:11;;;;;;;25.20;22.50;;;31.50;99.90;;;;;;5043310;28;20227;-71
2023/06/20 06:27:37;;;;;;;22.60;20.52;;;31.10;99.90;;;;;;5038128;28;20686;-71
2023/06/20 06:30:03;;;;;;;24.05;21.80;;;30.90;99.90;;;;;;5040763;28;20215;-71
2023/06/20 06:32:32;;;;;;;24.48;22.08;;;30.80;99.90;;;;;;5040232;28;20211;-69
2023/06/20 06:34:59;;;;;;;24.35;22.02;;;30.70;99.90;;;;;;5042399;28;20207;-72
2023/06/20 06:37:29;;;;;;;24.40;21.83;;;30.90;99.90;;;;;;5035757;28;20737;-72
2023/06/20 06:39:56;;;;;;;24.48;21.95;;;30.80;99.90;;;;;;5031033;28;20216;-72
2023/06/20 06:42:23;;;;;;;25.58;22.38;;;30.80;99.90;;;;;;5032350;28;20653;-72
2023/06/20 06:44:49;;;;;;;23.55;21.13;;;31.30;99.90;;;;;;5035492;28;22314;-71
2023/06/20 06:47:15;;;;;;;23.23;21.02;;;32.00;99.90;;;;;;5037396;28;20365;-72
2023/06/20 06:49:40;;;;;;;22.63;20.67;;;33.20;99.90;;;;;;5023151;28;20203;-72
2023/06/20 06:52:06;;;;;;;24.67;21.90;;;33.90;99.90;;;;;;5029779;28;20512;-72
2023/06/20 06:54:32;;;;;;;25.25;22.38;;;33.80;99.90;;;;;;5024373;28;20254;-72
2023/06/20 06:56:58;;;;;;;25.13;22.63;;;34.30;99.90;;;;;;5027729;28;20215;-74
2023/06/20 06:59:23;;;;;;;25.77;23.48;;;34.60;99.90;;;;;;5027674;28;20219;-70
2023/06/20 07:01:49;;;;;;;25.42;23.10;;;35.00;99.90;;;;;;5026185;28;20287;-72
2023/06/20 07:04:14;;;;;;;25.38;22.98;;;35.20;99.90;;;;;;5039521;28;20685;-72
2023/06/20 07:06:41;;;;;;;24.40;21.80;;;35.70;98.50;;;;;;5037754;28;20645;-72
2023/06/20 07:09:06;;;;;;;25.55;23.25;;;36.20;97.70;;;;;;5035608;28;20719;-73
2023/06/20 07:11:32;;;;;;;25.58;23.17;;;35.80;96.60;;;;;;5036066;28;20219;-72
2023/06/20 07:13:57;;;;;;;24.95;22.27;;;33.50;98.40;;;;;;5037398;28;20295;-71
2023/06/20 07:16:25;;;;;;;25.25;22.85;;;32.40;99.90;;;;;;5038276;28;20291;-72
2023/06/20 07:18:51;;;;;;;26.17;23.67;;;31.70;99.90;;;;;;5037833;28;20200;-71
2023/06/20 07:21:17;;;;;;;28.50;25.75;;;30.90;99.90;;;;;;5036601;28;20224;-71
2023/06/20 07:23:43;;;;;;;26.75;23.95;;;30.10;99.90;;;;;;5034616;28;20237;-71
2023/06/20 07:26:09;;;;;;;30.15;26.77;;;29.70;99.90;;;;;;5039738;28;20172;-71
2023/06/20 07:28:36;;;;;;;24.92;22.35;;;30.00;99.90;;;;;;5037086;28;20212;-71
2023/06/20 07:31:02;;;;;;;26.13;23.50;;;30.50;99.90;;;;;;5039267;28;20201;-71
2023/06/20 07:33:28;;;;;;;26.35;23.73;;;30.50;99.90;;;;;;5043318;28;20712;-71
2023/06/20 07:35:53;;;;;;;26.40;23.67;;;30.00;99.90;;;;;;5039693;28;20401;-71
2023/06/20 07:38:19;;;;;;;27.38;22.33;;;29.30;99.90;;;;;;5044098;28;20565;-70
2023/06/20 07:40:45;;;;;;;28.92;25.10;;;29.00;99.90;;;;;;5036968;28;20221;-71
2023/06/20 07:43:10;;;;;;;26.02;23.45;;;28.50;99.90;;;;;;5045877;28;20685;-70
2023/06/20 07:45:36;;;;;;;27.92;25.00;;;28.10;99.90;;;;;;5044026;28;20222;-72
2023/06/20 07:48:03;;;;;;;25.85;23.15;;;27.90;99.90;;;;;;5047240;28;20639;-71
2023/06/20 07:50:30;;;;;;;27.23;24.00;;;27.90;99.90;;;;;;5043171;28;20288;-72
2023/06/20 07:52:55;;;;;;;28.73;25.65;;;28.10;99.90;;;;;;5043235;28;20211;-72
2023/06/20 07:55:21;;;;;;;26.25;23.70;;;28.00;99.90;;;;;;5043867;28;20221;-71
2023/06/20 07:57:48;;;;;;;27.50;23.88;;;28.20;99.90;;;;;;5038920;28;20218;-72
2023/06/20 08:00:14;;;;;;;27.38;23.15;;;28.60;99.90;;;;;;5035605;28;20209;-71
2023/06/20 08:02:40;;;;;;;28.05;24.90;;;28.90;99.90;;;;;;5040382;28;20735;-72
2023/06/20 08:05:08;;;;;;;28.30;24.50;;;29.00;99.90;;;;;;5040456;28;20208;-72
2023/06/20 08:07:35;;;;;;;24.33;21.35;;;29.10;99.90;;;;;;5037718;28;20207;-72
2023/06/20 08:10:02;;;;;;;26.20;23.45;;;29.10;99.90;;;;;;5035558;28;20213;-72
2023/06/20 08:12:28;;;;;;;28.63;25.65;;;29.20;99.90;;;;;;5046032;28;20585;-72
2023/06/20 08:14:53;;;;;;;29.08;26.10;;;28.90;99.90;;;;;;5026702;28;20215;-75
2023/06/20 08:17:19;;;;;;;28.42;25.40;;;28.60;99.90;;;;;;5043359;28;20612;-75
2023/06/20 08:19:45;;;;;;;27.85;24.98;;;28.40;99.90;;;;;;5041959;28;20640;-73
2023/06/20 08:22:10;;;;;;;27.98;25.17;;;28.20;99.90;;;;;;5042461;28;20242;-72
2023/06/20 08:24:36;;;;;;;28.67;25.60;;;27.90;99.90;;;;;;5039728;28;20231;-73
2023/06/20 08:27:03;;;;;;;29.20;26.38;;;27.50;99.90;;;;;;5040899;28;20303;-71
2023/06/20 08:29:29;;;;;;;30.45;26.05;;;27.40;99.90;;;;;;5044815;28;20650;-71
2023/06/20 08:31:55;;;;;;;26.80;23.98;;;27.40;99.90;;;;;;5033105;28;20348;-72
2023/06/20 08:34:20;;;;;;;27.42;24.50;;;27.30;99.90;;;;;;5038835;28;20211;-72
2023/06/20 08:36:46;;;;;;;26.45;23.65;;;27.20;99.90;;;;;;5037512;28;20269;-72
2023/06/20 08:39:12;;;;;;;29.83;26.67;;;27.30;99.90;;;;;;5038080;28;20205;-71
2023/06/20 08:41:38;;;;;;;25.05;22.52;;;27.20;99.90;;;;;;5042540;28;20669;-72
2023/06/20 08:44:04;;;;;;;29.35;24.70;;;27.30;99.90;;;;;;5041860;28;20691;-72
2023/06/20 08:46:31;;;;;;;27.00;24.15;;;27.00;99.90;;;;;;5037902;28;20207;-72
2023/06/20 08:48:57;;;;;;;34.40;26.15;;;26.90;99.90;;;;;;5041071;28;20627;-72
2023/06/20 08:51:26;;;;;;;27.05;24.13;;;26.70;99.90;;;;;;5043234;28;20230;-72
2023/06/20 08:53:54;;;;;;;26.45;22.73;;;26.80;99.90;;;;;;5039390;28;20183;-71
2023/06/20 08:56:20;;;;;;;26.58;23.80;;;26.80;99.90;;;;;;5043317;28;20183;-70
2023/06/20 08:58:46;;;;;;;25.27;22.58;;;27.00;99.90;;;;;;5041151;28;20215;-72
2023/06/20 09:01:12;;;;;;;26.48;23.67;;;27.00;99.90;;;;;;5040306;28;20208;-73
2023/06/20 09:03:38;;;;;;;30.67;24.85;;;27.00;99.90;;;;;;5035327;28;20215;-73
2023/06/20 09:06:04;;;;;;;33.58;27.85;;;26.90;99.90;;;;;;5041437;28;20215;-72
2023/06/20 09:08:40;;;;;;;30.75;25.33;;;26.70;99.90;;;;;;5043752;28;20190;-72
2023/06/20 09:11:12;;;;;;;27.67;24.77;;;26.60;99.90;;;;;;5042875;28;20239;-73
2023/06/20 09:13:40;;;;;;;25.77;23.30;;;26.40;99.90;;;;;;5040572;28;20630;-71
2023/06/20 09:16:12;;;;;;;27.92;24.95;;;26.20;99.90;;;;;;5044212;28;20689;-72
2023/06/20 09:18:40;;;;;;;26.23;23.63;;;26.00;99.90;;;;;;5039086;28;20227;-72
2023/06/20 09:21:13;;;;;;;26.38;23.67;;;25.80;99.90;;;;;;5037795;28;20242;-71
2023/06/20 09:23:39;;;;;;;25.52;22.45;;;25.60;99.90;;;;;;5038229;28;20191;-72
2023/06/20 09:26:15;;;;;;;25.58;22.65;;;25.50;99.90;;;;;;5044300;28;20171;-71
2023/06/20 09:28:41;;;;;;;25.58;22.98;;;25.50;99.90;;;;;;5041280;28;20212;-72
2023/06/20 09:31:07;;;;;;;26.50;23.70;;;25.30;99.90;;;;;;5043052;28;20208;-74
2023/06/20 09:33:38;;;;;;;27.13;24.42;;;25.10;99.90;;;;;;5036509;28;20242;-72
2023/06/20 09:36:15;;;;;;;27.67;24.88;;;24.90;99.90;;;;;;5041295;28;20214;-72
2023/06/20 09:38:44;;;;;;;28.10;25.30;;;24.60;99.90;;;;;;5040795;28;20171;-71
2023/06/20 09:41:15;;;;;;;32.65;24.27;;;24.60;99.90;;;;;;5041012;28;20694;-71
2023/06/20 09:43:41;;;;;;;31.42;26.58;;;24.40;99.90;;;;;;5039113;28;20715;-71
2023/06/20 09:46:07;;;;;;;28.70;25.73;;;24.30;99.90;;;;;;5042456;28;20208;-72
2023/06/20 09:48:34;;;;;;;28.52;25.20;;;24.20;99.90;;;;;;5040586;28;20269;-72
2023/06/20 09:51:00;;;;;;;30.15;26.95;;;24.20;99.90;;;;;;5035010;28;20539;-72
2023/06/20 09:53:29;;;;;;;28.48;25.45;;;24.00;99.90;;;;;;5041484;28;20172;-73
2023/06/20 09:55:57;;;;;;;30.40;27.27;;;23.90;99.90;;;;;;5041158;28;20287;-73
2023/06/20 09:58:25;;;;;;;29.33;25.02;;;23.90;99.90;;;;;;5041767;28;20208;-73
2023/06/20 10:00:51;;;;;;;28.23;24.92;;;23.90;99.90;;;;;;5046577;22;20251;-75
2023/06/20 10:03:18;;;;;;;28.30;25.40;;;23.90;99.90;;;;;;5009069;28;20217;-76
2023/06/20 10:05:47;;;;;;;28.58;25.52;;;23.80;99.90;;;;;;5006468;28;20186;-75
2023/06/20 10:08:16;;;;;;;29.55;26.25;;;23.80;99.90;;;;;;5003444;28;20574;-75
2023/06/20 10:10:42;;;;;;;32.15;28.60;;;23.80;99.90;;;;;;5004719;28;20215;-74
2023/06/20 10:13:09;;;;;;;32.13;26.52;;;23.60;99.90;;;;;;4980312;28;20598;-75
2023/06/20 10:15:36;;;;;;;32.92;27.60;;;23.50;99.90;;;;;;4988451;28;20210;-74
2023/06/20 10:18:02;;;;;;;32.60;29.05;;;23.30;99.90;;;;;;4994478;28;20225;-74
2023/06/20 10:20:37;;;;;;;33.47;28.55;;;23.30;99.90;;;;;;4990766;28;20687;-74
2023/06/20 10:23:09;;;;;;;33.20;28.27;;;23.10;99.90;;;;;;4987691;28;20201;-75
2023/06/20 10:25:47;;;;;;;35.08;27.15;;;23.10;99.90;;;;;;4987644;28;20209;-74
2023/06/20 10:28:13;;;;;;;32.97;29.45;;;23.20;99.90;;;;;;4986403;28;20202;-76
2023/06/20 10:30:54;;;;;;;32.65;29.05;;;23.10;99.90;;;;;;4980574;28;20576;-73
2023/06/20 10:33:32;;;;;;;31.38;27.67;;;23.00;99.90;;;;;;4989666;28;20268;-74
2023/06/20 10:36:02;;;;;;;33.47;28.85;;;22.90;99.90;;;;;;4987124;28;20213;-74
2023/06/20 10:38:30;;;;;;;33.85;28.40;;;22.90;99.90;;;;;;4983710;28;20582;-75
2023/06/20 10:41:14;;;;;;;32.75;28.40;;;22.80;99.90;;;;;;4985871;28;20268;-75
2023/06/20 10:44:00;;;;;;;33.97;28.25;;;22.70;99.90;;;;;;4983184;28;20236;-74
2023/06/20 10:46:38;;;;;;;30.73;26.70;;;22.80;99.90;;;;;;4982652;28;20208;-75
2023/06/20 10:49:06;;;;;;;33.60;28.23;;;22.70;99.90;;;;;;4983474;28;20272;-75
2023/06/20 10:51:45;;;;;;;31.85;28.30;;;22.70;99.90;;;;;;4991232;28;20296;-76
2023/06/20 10:54:12;;;;;;;31.77;27.83;;;22.60;99.90;;;;;;5000091;28;20275;-74
2023/06/20 10:56:38;;;;;;;31.85;26.65;;;22.60;99.90;;;;;;4989502;28;20235;-75
2023/06/20 10:59:14;;;;;;;34.13;28.70;;;22.60;99.90;;;;;;4991061;28;20174;-75
2023/06/20 11:01:40;;;;;;;31.20;27.80;;;22.70;99.90;;;;;;4987482;28;20223;-74
2023/06/20 11:04:08;;;;;;;35.03;27.73;;;22.60;99.90;;;;;;4986354;28;20581;-75
2023/06/20 11:06:33;;;;;;;33.75;27.08;;;22.70;99.90;;;;;;4987594;28;20219;-75
2023/06/20 11:08:59;;;;;;;30.75;27.50;;;22.80;99.90;;;;;;4983652;28;20727;-76
2023/06/20 11:11:32;;;;;;;32.40;28.88;;;22.80;99.90;;;;;;4982928;28;20213;-75
2023/06/20 11:14:13;;;;;;;30.13;26.95;;;22.80;99.90;;;;;;4987279;28;20246;-76
2023/06/20 11:16:39;;;;;;;30.30;27.20;;;22.90;99.90;;;;;;4989658;28;20911;-75
2023/06/20 11:19:05;;;;;;;32.15;28.77;;;22.90;99.90;;;;;;4989989;28;20210;-75
2023/06/20 11:21:31;;;;;;;32.88;29.05;;;23.00;99.90;;;;;;4989053;28;20276;-75
2023/06/20 11:24:04;;;;;;;33.55;29.63;;;23.10;99.90;;;;;;4984898;28;20271;-74
2023/06/20 11:26:35;;;;;;;35.30;31.60;;;23.30;99.90;;;;;;4982740;28;20194;-76
2023/06/20 11:29:02;;;;;;;33.05;29.52;;;23.30;99.90;;;;;;4986537;28;20212;-76
2023/06/20 11:31:29;;;;;;;33.35;29.23;;;23.20;99.90;;;;;;4980034;28;20575;-75
2023/06/20 11:34:12;;;;;;;35.92;32.08;;;23.30;99.90;;;;;;4985489;28;20222;-76
2023/06/20 11:36:39;;;;;;;32.67;29.00;;;23.30;99.90;;;;;;4978760;28;20217;-75
2023/06/20 11:39:07;;;;;;;33.75;30.20;;;23.60;99.90;;;;;;4990158;28;20240;-74
2023/06/20 11:41:33;;;;;;;33.33;30.02;;;23.70;99.90;;;;;;4987895;28;20774;-74
2023/06/20 11:43:59;;;;;;;36.25;31.25;;;23.90;99.90;;;;;;4986505;28;20297;-75
2023/06/20 11:46:25;;;;;;;32.08;28.73;;;23.90;99.90;;;;;;4988461;28;20595;-75
2023/06/20 11:48:53;;;;;;;32.50;29.00;;;24.00;99.90;;;;;;4984516;28;20209;-74
2023/06/20 11:51:26;;;;;;;32.38;28.98;;;24.00;99.90;;;;;;4986885;28;20221;-76
2023/06/20 11:54:07;;;;;;;33.33;29.80;;;24.10;99.90;;;;;;4986126;28;20178;-75
2023/06/20 11:56:32;;;;;;;31.83;28.42;;;24.40;99.90;;;;;;4983106;28;20182;-74
2023/06/20 11:58:58;;;;;;;31.27;28.05;;;24.80;99.90;;;;;;4986283;28;20247;-75
2023/06/20 12:01:25;;;;;;;36.45;31.80;;;25.10;99.90;;;;;;4984065;28;20217;-75
2023/06/20 12:04:08;;;;;;;33.65;30.17;;;25.00;99.90;;;;;;4984226;28;20210;-74
2023/06/20 12:06:39;;;;;;;33.55;30.05;;;24.70;99.90;;;;;;4981401;28;20225;-74
2023/06/20 12:09:13;;;;;;;30.42;27.33;;;24.90;99.90;;;;;;4990867;28;20296;-74
2023/06/20 12:11:52;;;;;;;36.00;32.20;;;25.10;99.90;;;;;;4981853;28;20672;-75
2023/06/20 12:14:19;;;;;;;32.05;28.73;;;25.00;99.90;;;;;;4980987;28;20188;-74
2023/06/20 12:16:45;;;;;;;35.47;28.55;;;24.90;99.90;;;;;;4987545;28;20205;-74
2023/06/20 12:19:11;;;;;;;33.25;29.83;;;24.90;99.90;;;;;;4993918;28;20288;-76
2023/06/20 12:21:40;;;;;;;31.52;28.25;;;25.30;99.90;;;;;;4992419;28;20221;-76
2023/06/20 12:24:07;;;;;;;28.70;25.70;;;25.50;99.90;;;;;;4992498;28;20214;-76
2023/06/20 12:26:32;;;;;;;28.45;25.60;;;25.50;99.90;;;;;;4988782;28;20571;-74
2023/06/20 12:28:58;;;;;;;28.20;25.38;;;25.40;99.90;;;;;;4989029;28;20213;-75
2023/06/20 12:31:24;;;;;;;29.05;25.95;;;25.60;99.90;;;;;;4987718;28;20225;-75
2023/06/20 12:33:50;;;;;;;26.48;23.65;;;25.50;99.90;;;;;;4992136;28;20297;-74
2023/06/20 12:36:16;;;;;;;28.45;25.52;;;25.70;99.90;;;;;;4990623;28;20309;-75
2023/06/20 12:38:42;;;;;;;29.80;26.58;;;25.90;99.90;;;;;;4991530;28;20245;-76